PWSweather.com
Personal Weather Stations
Station Observations
WD4JKH
Forsyth, GA 31029

Forsyth, GA 31029

Lat: 33.033225, Lon: -83.927995

Elevation: 709

Station Type: Davis Vantage VUE

High Low Average
Temperature 64.7°F18.2°C 51.2°F10.7°C 57.3°F14.1°C
Dew Point 50.2°F10.1°C 45.9°F7.7°C 48.0°F8.9°C
Winds 7.3 mph 11.7 kmh Calm Calm 2.0 mph E3.2 kmh E
Wind Gusts 13.0 mph20.9 kmh -- 4.0 mph6.4 kmh
Humidity 87% 52% 72%
Pressure 30.16 in1021.3 mb 30.05 in1017.6 mb -
Precipitation 0.00 in0.0 mm - -
Hour Temp Dew Point Humidity Winds Wind Gusts Pressure Precip Precip Rate Daily Precip Total
12:03 AM 56.3°F13.5°C 47.5°F8.6°C 72% 1.0 mph ENE1.6 kmh ENE 3.0 mph4.8 kmh 30.15 in1021.0 mb 0.00 in0.0 mm 0.00 in0.0 mm 0.00 in0.0 mm
12:08 AM 56.1°F13.4°C 47.7°F8.7°C 73% 1.0 mph ENE1.6 kmh ENE 3.0 mph4.8 kmh 30.16 in1021.3 mb 0.00 in0.0 mm 0.00 in0.0 mm 0.00 in0.0 mm
12:13 AM 55.9°F13.3°C 47.5°F8.6°C 73% 1.0 mph ENE1.6 kmh ENE 2.0 mph3.2 kmh 30.15 in1021.0 mb 0.00 in0.0 mm 0.00 in0.0 mm 0.00 in0.0 mm
12:18 AM 55.9°F13.3°C 47.5°F8.6°C 73% 1.0 mph ENE1.6 kmh ENE 2.0 mph3.2 kmh 30.15 in1021.0 mb 0.00 in0.0 mm 0.00 in0.0 mm 0.00 in0.0 mm
12:23 AM 56.0°F13.3°C 47.5°F8.6°C 73% 1.0 mph ENE1.6 kmh ENE 2.0 mph3.2 kmh 30.15 in1021.0 mb 0.00 in0.0 mm 0.00 in0.0 mm 0.00 in0.0 mm
12:28 AM 56.1°F13.4°C 47.6°F8.7°C 73% 2.2 mph ENE3.5 kmh ENE 3.0 mph4.8 kmh 30.15 in1021.0 mb 0.00 in0.0 mm 0.00 in0.0 mm 0.00 in0.0 mm
12:33 AM 56.0°F13.3°C 47.5°F8.6°C 73% 1.5 mph NE2.4 kmh NE 3.0 mph4.8 kmh 30.15 in1021.0 mb 0.00 in0.0 mm 0.00 in0.0 mm 0.00 in0.0 mm
12:38 AM 55.9°F13.3°C 47.8°F8.8°C 74% 2.0 mph NE3.2 kmh NE 3.0 mph4.8 kmh 30.15 in1021.0 mb 0.00 in0.0 mm 0.00 in0.0 mm 0.00 in0.0 mm
12:43 AM 55.6°F13.1°C 47.8°F8.8°C 75% Calm Calm 3.0 mph4.8 kmh 30.15 in1021.0 mb 0.00 in0.0 mm 0.00 in0.0 mm 0.00 in0.0 mm
12:48 AM 55.5°F13.1°C 47.7°F8.7°C 75% 1.2 mph NE1.9 kmh NE 3.0 mph4.8 kmh 30.15 in1021.0 mb 0.00 in0.0 mm 0.00 in0.0 mm 0.00 in0.0 mm
12:53 AM 55.5°F13.1°C 47.8°F8.8°C 75% 1.0 mph NE1.6 kmh NE 3.0 mph4.8 kmh 30.15 in1021.0 mb 0.00 in0.0 mm 0.00 in0.0 mm 0.00 in0.0 mm
12:58 AM 55.5°F13.1°C 47.8°F8.8°C 75% 2.1 mph NE3.4 kmh NE 3.0 mph4.8 kmh 30.15 in1021.0 mb 0.00 in0.0 mm 0.00 in0.0 mm 0.00 in0.0 mm
01:03 AM 55.7°F13.2°C 47.6°F8.7°C 74% 1.0 mph ENE1.6 kmh ENE 3.0 mph4.8 kmh 30.15 in1021.0 mb 0.00 in0.0 mm 0.00 in0.0 mm 0.00 in0.0 mm
01:08 AM 55.6°F13.1°C 47.5°F8.6°C 74% 1.6 mph ENE2.6 kmh ENE 4.0 mph6.4 kmh 30.14 in1020.7 mb 0.00 in0.0 mm 0.00 in0.0 mm 0.00 in0.0 mm
01:13 AM 55.5°F13.1°C 47.3°F8.5°C 74% 1.6 mph ENE2.6 kmh ENE 4.0 mph6.4 kmh 30.14 in1020.7 mb 0.00 in0.0 mm 0.00 in0.0 mm 0.00 in0.0 mm
01:18 AM 55.5°F13.1°C 47.4°F8.6°C 74% 1.0 mph E1.6 kmh E 4.0 mph6.4 kmh 30.14 in1020.7 mb 0.00 in0.0 mm 0.00 in0.0 mm 0.00 in0.0 mm
01:24 AM 55.5°F13.1°C 47.4°F8.6°C 74% 1.3 mph ENE2.1 kmh ENE 4.0 mph6.4 kmh 30.14 in1020.7 mb 0.00 in0.0 mm 0.00 in0.0 mm 0.00 in0.0 mm
01:29 AM 55.5°F13.1°C 47.4°F8.6°C 74% 1.0 mph E1.6 kmh E 3.0 mph4.8 kmh 30.14 in1020.7 mb 0.00 in0.0 mm 0.00 in0.0 mm 0.00 in0.0 mm
01:34 AM 55.4°F13.0°C 47.3°F8.5°C 74% 1.1 mph ENE1.8 kmh ENE 2.0 mph3.2 kmh 30.14 in1020.7 mb 0.00 in0.0 mm 0.00 in0.0 mm 0.00 in0.0 mm
01:39 AM 55.4°F13.0°C 47.7°F8.7°C 75% 1.0 mph ENE1.6 kmh ENE 2.0 mph3.2 kmh 30.14 in1020.7 mb 0.00 in0.0 mm 0.00 in0.0 mm 0.00 in0.0 mm
01:44 AM 55.3°F12.9°C 47.6°F8.7°C 75% 1.1 mph ENE1.8 kmh ENE 2.0 mph3.2 kmh 30.13 in1020.3 mb 0.00 in0.0 mm 0.00 in0.0 mm 0.00 in0.0 mm
01:48 AM 55.3°F12.9°C 47.2°F8.4°C 74% 1.0 mph ENE1.6 kmh ENE 2.0 mph3.2 kmh 30.13 in1020.3 mb 0.00 in0.0 mm 0.00 in0.0 mm 0.00 in0.0 mm
01:54 AM 55.4°F13.0°C 47.2°F8.4°C 74% 1.0 mph ENE1.6 kmh ENE 2.0 mph3.2 kmh 30.13 in1020.3 mb 0.00 in0.0 mm 0.00 in0.0 mm 0.00 in0.0 mm
01:59 AM 55.4°F13.0°C 47.6°F8.7°C 75% Calm Calm 2.0 mph3.2 kmh 30.13 in1020.3 mb 0.00 in0.0 mm 0.00 in0.0 mm 0.00 in0.0 mm
02:04 AM 55.3°F12.9°C 47.6°F8.7°C 75% Calm Calm 2.0 mph3.2 kmh 30.13 in1020.3 mb 0.00 in0.0 mm 0.00 in0.0 mm 0.00 in0.0 mm
02:09 AM 55.3°F12.9°C 47.2°F8.4°C 74% Calm Calm 1.0 mph1.6 kmh 30.13 in1020.3 mb 0.00 in0.0 mm 0.00 in0.0 mm 0.00 in0.0 mm
02:14 AM 55.3°F12.9°C 47.2°F8.4°C 74% Calm Calm 1.0 mph1.6 kmh 30.13 in1020.3 mb 0.00 in0.0 mm 0.00 in0.0 mm 0.00 in0.0 mm
02:19 AM 55.3°F12.9°C 47.2°F8.4°C 74% Calm Calm 1.0 mph1.6 kmh 30.13 in1020.3 mb 0.00 in0.0 mm 0.00 in0.0 mm 0.00 in0.0 mm
02:24 AM 55.3°F12.9°C 47.2°F8.4°C 74% 1.0 mph E1.6 kmh E 1.0 mph1.6 kmh 30.13 in1020.3 mb 0.00 in0.0 mm 0.00 in0.0 mm 0.00 in0.0 mm
02:28 AM 55.3°F12.9°C 47.2°F8.4°C 74% Calm Calm 1.0 mph1.6 kmh 30.13 in1020.3 mb 0.00 in0.0 mm 0.00 in0.0 mm 0.00 in0.0 mm
02:34 AM 55.3°F12.9°C 47.2°F8.4°C 74% Calm Calm 1.0 mph1.6 kmh 30.12 in1020.0 mb 0.00 in0.0 mm 0.00 in0.0 mm 0.00 in0.0 mm
02:39 AM 55.3°F12.9°C 47.2°F8.4°C 74% Calm Calm 1.0 mph1.6 kmh 30.12 in1020.0 mb 0.00 in0.0 mm 0.00 in0.0 mm 0.00 in0.0 mm
02:44 AM 55.2°F12.9°C 47.4°F8.6°C 75% Calm Calm 1.0 mph1.6 kmh 30.12 in1020.0 mb 0.00 in0.0 mm 0.00 in0.0 mm 0.00 in0.0 mm
02:49 AM 55.1°F12.8°C 47.4°F8.6°C 75% 1.5 mph E2.4 kmh E 2.0 mph3.2 kmh 30.11 in1019.6 mb 0.00 in0.0 mm 0.00 in0.0 mm 0.00 in0.0 mm
02:54 AM 55.1°F12.8°C 47.4°F8.6°C 75% 1.0 mph E1.6 kmh E 3.0 mph4.8 kmh 30.11 in1019.6 mb 0.00 in0.0 mm 0.00 in0.0 mm 0.00 in0.0 mm
02:59 AM 55.0°F12.8°C 47.3°F8.5°C 75% Calm Calm 3.0 mph4.8 kmh 30.11 in1019.6 mb 0.00 in0.0 mm 0.00 in0.0 mm 0.00 in0.0 mm
03:04 AM 55.0°F12.8°C 47.2°F8.4°C 75% 1.0 mph ESE1.6 kmh ESE 3.0 mph4.8 kmh 30.11 in1019.6 mb 0.00 in0.0 mm 0.00 in0.0 mm 0.00 in0.0 mm
03:09 AM 55.0°F12.8°C 47.3°F8.5°C 75% 1.0 mph ESE1.6 kmh ESE 3.0 mph4.8 kmh 30.11 in1019.6 mb 0.00 in0.0 mm 0.00 in0.0 mm 0.00 in0.0 mm
03:14 AM 55.0°F12.8°C 47.3°F8.5°C 75% Calm Calm 2.0 mph3.2 kmh 30.11 in1019.6 mb 0.00 in0.0 mm 0.00 in0.0 mm 0.00 in0.0 mm
03:19 AM 55.0°F12.8°C 47.3°F8.5°C 75% 1.0 mph ESE1.6 kmh ESE 2.0 mph3.2 kmh 30.11 in1019.6 mb 0.00 in0.0 mm 0.00 in0.0 mm 0.00 in0.0 mm
03:24 AM 55.0°F12.8°C 47.3°F8.5°C 75% 1.0 mph E1.6 kmh E 1.0 mph1.6 kmh 30.11 in1019.6 mb 0.00 in0.0 mm 0.00 in0.0 mm 0.00 in0.0 mm
03:29 AM 54.9°F12.7°C 47.2°F8.4°C 75% Calm Calm 1.0 mph1.6 kmh 30.11 in1019.6 mb 0.00 in0.0 mm 0.00 in0.0 mm 0.00 in0.0 mm
03:34 AM 54.9°F12.7°C 47.1°F8.4°C 75% 1.0 mph E1.6 kmh E 1.0 mph1.6 kmh 30.11 in1019.6 mb 0.00 in0.0 mm 0.00 in0.0 mm 0.00 in0.0 mm
03:39 AM 54.8°F12.7°C 47.1°F8.4°C 75% 1.5 mph E2.4 kmh E 2.0 mph3.2 kmh 30.10 in1019.3 mb 0.00 in0.0 mm 0.00 in0.0 mm 0.00 in0.0 mm
03:44 AM 54.7°F12.6°C 47.0°F8.3°C 75% 1.0 mph E1.6 kmh E 2.0 mph3.2 kmh 30.10 in1019.3 mb 0.00 in0.0 mm 0.00 in0.0 mm 0.00 in0.0 mm
03:49 AM 54.6°F12.6°C 47.3°F8.5°C 76% 1.9 mph E3.1 kmh E 3.0 mph4.8 kmh 30.10 in1019.3 mb 0.00 in0.0 mm 0.00 in0.0 mm 0.00 in0.0 mm
03:54 AM 54.7°F12.6°C 47.0°F8.3°C 75% 1.5 mph ENE2.4 kmh ENE 4.0 mph6.4 kmh 30.10 in1019.3 mb 0.00 in0.0 mm 0.00 in0.0 mm 0.00 in0.0 mm
03:59 AM 54.6°F12.6°C 47.2°F8.4°C 76% 1.3 mph ENE2.1 kmh ENE 4.0 mph6.4 kmh 30.10 in1019.3 mb 0.00 in0.0 mm 0.00 in0.0 mm 0.00 in0.0 mm
04:04 AM 54.5°F12.5°C 47.2°F8.4°C 76% 1.8 mph ENE2.9 kmh ENE 4.0 mph6.4 kmh 30.10 in1019.3 mb 0.00 in0.0 mm 0.00 in0.0 mm 0.00 in0.0 mm
04:09 AM 54.2°F12.3°C 47.2°F8.4°C 77% 1.0 mph NE1.6 kmh NE 4.0 mph6.4 kmh 30.10 in1019.3 mb 0.00 in0.0 mm 0.00 in0.0 mm 0.00 in0.0 mm
04:14 AM 54.0°F12.2°C 47.4°F8.6°C 78% Calm Calm 3.0 mph4.8 kmh 30.10 in1019.3 mb 0.00 in0.0 mm 0.00 in0.0 mm 0.00 in0.0 mm
04:19 AM 53.8°F12.1°C 47.1°F8.4°C 78% Calm Calm 3.0 mph4.8 kmh 30.10 in1019.3 mb 0.00 in0.0 mm 0.00 in0.0 mm 0.00 in0.0 mm
04:24 AM 53.7°F12.1°C 47.3°F8.5°C 79% Calm Calm 2.0 mph3.2 kmh 30.11 in1019.6 mb 0.00 in0.0 mm 0.00 in0.0 mm 0.00 in0.0 mm
04:29 AM 53.6°F12.0°C 47.3°F8.5°C 79% Calm Calm 2.0 mph3.2 kmh 30.10 in1019.3 mb 0.00 in0.0 mm 0.00 in0.0 mm 0.00 in0.0 mm
04:34 AM 53.6°F12.0°C 47.3°F8.5°C 79% Calm Calm -- 30.10 in1019.3 mb 0.00 in0.0 mm 0.00 in0.0 mm 0.00 in0.0 mm
04:39 AM 53.6°F12.0°C 47.3°F8.5°C 79% 1.0 mph SSW1.6 kmh SSW 1.0 mph1.6 kmh 30.11 in1019.6 mb 0.00 in0.0 mm 0.00 in0.0 mm 0.00 in0.0 mm
04:44 AM 53.7°F12.1°C 47.4°F8.6°C 79% Calm Calm 1.0 mph1.6 kmh 30.11 in1019.6 mb 0.00 in0.0 mm 0.00 in0.0 mm 0.00 in0.0 mm
04:49 AM 53.7°F12.1°C 47.3°F8.5°C 79% 1.1 mph SW1.8 kmh SW 2.0 mph3.2 kmh 30.11 in1019.6 mb 0.00 in0.0 mm 0.00 in0.0 mm 0.00 in0.0 mm
04:54 AM 53.7°F12.1°C 47.3°F8.5°C 79% Calm Calm 2.0 mph3.2 kmh 30.10 in1019.3 mb 0.00 in0.0 mm 0.00 in0.0 mm 0.00 in0.0 mm
04:59 AM 53.7°F12.1°C 47.4°F8.6°C 79% Calm Calm 2.0 mph3.2 kmh 30.10 in1019.3 mb 0.00 in0.0 mm 0.00 in0.0 mm 0.00 in0.0 mm
05:04 AM 53.7°F12.1°C 47.4°F8.6°C 79% Calm Calm 2.0 mph3.2 kmh 30.10 in1019.3 mb 0.00 in0.0 mm 0.00 in0.0 mm 0.00 in0.0 mm
05:09 AM 53.7°F12.1°C 47.3°F8.5°C 79% 1.0 mph E1.6 kmh E 1.0 mph1.6 kmh 30.10 in1019.3 mb 0.00 in0.0 mm 0.00 in0.0 mm 0.00 in0.0 mm
05:14 AM 53.8°F12.1°C 47.4°F8.6°C 79% 1.0 mph E1.6 kmh E 1.0 mph1.6 kmh 30.09 in1019.0 mb 0.00 in0.0 mm 0.00 in0.0 mm 0.00 in0.0 mm
05:19 AM 53.7°F12.1°C 47.4°F8.6°C 79% 1.1 mph ESE1.8 kmh ESE 2.0 mph3.2 kmh 30.09 in1019.0 mb 0.00 in0.0 mm 0.00 in0.0 mm 0.00 in0.0 mm
05:24 AM 53.7°F12.1°C 47.4°F8.6°C 79% 1.3 mph SE2.1 kmh SE 2.0 mph3.2 kmh 30.09 in1019.0 mb 0.00 in0.0 mm 0.00 in0.0 mm 0.00 in0.0 mm
05:29 AM 53.6°F12.0°C 47.6°F8.7°C 80% 1.0 mph E1.6 kmh E 2.0 mph3.2 kmh 30.09 in1019.0 mb 0.00 in0.0 mm 0.00 in0.0 mm 0.00 in0.0 mm
05:34 AM 53.5°F11.9°C 47.5°F8.6°C 80% 1.2 mph E1.9 kmh E 2.0 mph3.2 kmh 30.10 in1019.3 mb 0.00 in0.0 mm 0.00 in0.0 mm 0.00 in0.0 mm
05:39 AM 53.5°F11.9°C 47.5°F8.6°C 80% 1.0 mph N1.6 kmh N 2.0 mph3.2 kmh 30.10 in1019.3 mb 0.00 in0.0 mm 0.00 in0.0 mm 0.00 in0.0 mm
05:44 AM 53.2°F11.8°C 47.6°F8.7°C 81% 1.9 mph NNW3.1 kmh NNW 3.0 mph4.8 kmh 30.10 in1019.3 mb 0.00 in0.0 mm 0.00 in0.0 mm 0.00 in0.0 mm
05:49 AM 52.8°F11.6°C 47.5°F8.6°C 82% 1.5 mph NNW2.4 kmh NNW 3.0 mph4.8 kmh 30.10 in1019.3 mb 0.00 in0.0 mm 0.00 in0.0 mm 0.00 in0.0 mm
05:54 AM 52.8°F11.6°C 47.5°F8.6°C 82% 1.8 mph 2.9 kmh 3.0 mph4.8 kmh 30.10 in1019.3 mb 0.00 in0.0 mm 0.00 in0.0 mm 0.00 in0.0 mm
05:59 AM 52.8°F11.6°C 47.5°F8.6°C 82% 1.9 mph NNW3.1 kmh NNW 3.0 mph4.8 kmh 30.10 in1019.3 mb 0.00 in0.0 mm 0.00 in0.0 mm 0.00 in0.0 mm
06:04 AM 52.6°F11.4°C 47.6°F8.7°C 83% 1.6 mph NNE2.6 kmh NNE 3.0 mph4.8 kmh 30.10 in1019.3 mb 0.00 in0.0 mm 0.00 in0.0 mm 0.00 in0.0 mm
06:09 AM 52.6°F11.4°C 47.6°F8.7°C 83% 1.0 mph ENE1.6 kmh ENE 3.0 mph4.8 kmh 30.09 in1019.0 mb 0.00 in0.0 mm 0.00 in0.0 mm 0.00 in0.0 mm
06:14 AM 52.6°F11.4°C 47.6°F8.7°C 83% 1.5 mph E2.4 kmh E 3.0 mph4.8 kmh 30.10 in1019.3 mb 0.00 in0.0 mm 0.00 in0.0 mm 0.00 in0.0 mm
06:19 AM 52.6°F11.4°C 47.6°F8.7°C 83% Calm Calm 3.0 mph4.8 kmh 30.10 in1019.3 mb 0.00 in0.0 mm 0.00 in0.0 mm 0.00 in0.0 mm
06:24 AM 52.5°F11.4°C 47.5°F8.6°C 83% Calm Calm 2.0 mph3.2 kmh 30.10 in1019.3 mb 0.00 in0.0 mm 0.00 in0.0 mm 0.00 in0.0 mm
06:29 AM 52.4°F11.3°C 47.4°F8.6°C 83% Calm Calm 2.0 mph3.2 kmh 30.10 in1019.3 mb 0.00 in0.0 mm 0.00 in0.0 mm 0.00 in0.0 mm
06:34 AM 52.2°F11.2°C 47.5°F8.6°C 84% 1.5 mph E2.4 kmh E 2.0 mph3.2 kmh 30.10 in1019.3 mb 0.00 in0.0 mm 0.00 in0.0 mm 0.00 in0.0 mm
06:39 AM 52.0°F11.1°C 47.3°F8.5°C 84% 1.6 mph NNE2.6 kmh NNE 3.0 mph4.8 kmh 30.10 in1019.3 mb 0.00 in0.0 mm 0.00 in0.0 mm 0.00 in0.0 mm
06:44 AM 51.9°F11.1°C 47.2°F8.4°C 84% 5.0 mph NE8.0 kmh NE 6.0 mph9.7 kmh 30.10 in1019.3 mb 0.00 in0.0 mm 0.00 in0.0 mm 0.00 in0.0 mm
06:49 AM 51.8°F11.0°C 47.1°F8.4°C 84% 2.8 mph NE4.5 kmh NE 6.0 mph9.7 kmh 30.10 in1019.3 mb 0.00 in0.0 mm 0.00 in0.0 mm 0.00 in0.0 mm
06:54 AM 51.8°F11.0°C 47.1°F8.4°C 84% 1.0 mph NE1.6 kmh NE 6.0 mph9.7 kmh 30.11 in1019.6 mb 0.00 in0.0 mm 0.00 in0.0 mm 0.00 in0.0 mm
06:59 AM 51.8°F11.0°C 47.1°F8.4°C 84% 1.4 mph NE2.3 kmh NE 6.0 mph9.7 kmh 30.11 in1019.6 mb 0.00 in0.0 mm 0.00 in0.0 mm 0.00 in0.0 mm
07:04 AM 51.8°F11.0°C 47.1°F8.4°C 84% 1.8 mph NE2.9 kmh NE 6.0 mph9.7 kmh 30.11 in1019.6 mb 0.00 in0.0 mm 0.00 in0.0 mm 0.00 in0.0 mm
07:09 AM 51.9°F11.1°C 47.2°F8.4°C 84% 1.6 mph NE2.6 kmh NE 3.0 mph4.8 kmh 30.11 in1019.6 mb 0.00 in0.0 mm 0.00 in0.0 mm 0.00 in0.0 mm
07:14 AM 51.8°F11.0°C 47.1°F8.4°C 84% Calm Calm 3.0 mph4.8 kmh 30.11 in1019.6 mb 0.00 in0.0 mm 0.00 in0.0 mm 0.00 in0.0 mm
07:19 AM 51.7°F10.9°C 47.0°F8.3°C 84% 1.6 mph NE2.6 kmh NE 3.0 mph4.8 kmh 30.11 in1019.6 mb 0.00 in0.0 mm 0.00 in0.0 mm 0.00 in0.0 mm
07:24 AM 51.7°F10.9°C 47.0°F8.3°C 84% 1.0 mph NE1.6 kmh NE 3.0 mph4.8 kmh 30.11 in1019.6 mb 0.00 in0.0 mm 0.00 in0.0 mm 0.00 in0.0 mm
07:29 AM 51.7°F10.9°C 47.0°F8.3°C 84% 1.8 mph NE2.9 kmh NE 3.0 mph4.8 kmh 30.11 in1019.6 mb 0.00 in0.0 mm 0.00 in0.0 mm 0.00 in0.0 mm
07:34 AM 51.7°F10.9°C 47.0°F8.3°C 84% 1.8 mph NE2.9 kmh NE 3.0 mph4.8 kmh 30.11 in1019.6 mb 0.00 in0.0 mm 0.00 in0.0 mm 0.00 in0.0 mm
07:39 AM 51.6°F10.9°C 46.9°F8.3°C 84% 1.2 mph NNW1.9 kmh NNW 3.0 mph4.8 kmh 30.11 in1019.6 mb 0.00 in0.0 mm 0.00 in0.0 mm 0.00 in0.0 mm
07:44 AM 51.4°F10.8°C 46.7°F8.2°C 84% Calm Calm 3.0 mph4.8 kmh 30.11 in1019.6 mb 0.00 in0.0 mm 0.00 in0.0 mm 0.00 in0.0 mm
07:49 AM 51.3°F10.7°C 46.9°F8.3°C 85% 1.0 mph NNW1.6 kmh NNW 3.0 mph4.8 kmh 30.11 in1019.6 mb 0.00 in0.0 mm 0.00 in0.0 mm 0.00 in0.0 mm
07:54 AM 51.2°F10.7°C 46.8°F8.2°C 85% 1.1 mph N1.8 kmh N 2.0 mph3.2 kmh 30.11 in1019.6 mb 0.00 in0.0 mm 0.00 in0.0 mm 0.00 in0.0 mm
07:59 AM 51.3°F10.7°C 46.9°F8.3°C 85% 1.1 mph NNE1.8 kmh NNE 2.0 mph3.2 kmh 30.11 in1019.6 mb 0.00 in0.0 mm 0.00 in0.0 mm 0.00 in0.0 mm
08:04 AM 51.4°F10.8°C 47.0°F8.3°C 85% 1.1 mph NE1.8 kmh NE 2.0 mph3.2 kmh 30.12 in1020.0 mb 0.00 in0.0 mm 0.00 in0.0 mm 0.00 in0.0 mm
08:09 AM 51.5°F10.8°C 46.8°F8.2°C 84% 1.0 mph NE1.6 kmh NE 2.0 mph3.2 kmh 30.11 in1019.6 mb 0.00 in0.0 mm 0.00 in0.0 mm 0.00 in0.0 mm
08:14 AM 51.7°F10.9°C 47.0°F8.3°C 84% 1.4 mph NE2.3 kmh NE 2.0 mph3.2 kmh 30.11 in1019.6 mb 0.00 in0.0 mm 0.00 in0.0 mm 0.00 in0.0 mm
08:19 AM 51.9°F11.1°C 46.9°F8.3°C 83% 1.4 mph ENE2.3 kmh ENE 2.0 mph3.2 kmh 30.11 in1019.6 mb 0.00 in0.0 mm 0.00 in0.0 mm 0.00 in0.0 mm
08:24 AM 52.0°F11.1°C 47.0°F8.3°C 83% 1.0 mph E1.6 kmh E 2.0 mph3.2 kmh 30.12 in1020.0 mb 0.00 in0.0 mm 0.00 in0.0 mm 0.00 in0.0 mm
08:29 AM 52.2°F11.2°C 47.2°F8.4°C 83% 1.0 mph E1.6 kmh E 2.0 mph3.2 kmh 30.12 in1020.0 mb 0.00 in0.0 mm 0.00 in0.0 mm 0.00 in0.0 mm
08:34 AM 52.5°F11.4°C 47.2°F8.4°C 82% 2.4 mph NE3.9 kmh NE 4.0 mph6.4 kmh 30.12 in1020.0 mb 0.00 in0.0 mm 0.00 in0.0 mm 0.00 in0.0 mm
08:39 AM 52.8°F11.6°C 47.2°F8.4°C 81% 2.5 mph NE4.0 kmh NE 4.0 mph6.4 kmh 30.12 in1020.0 mb 0.00 in0.0 mm 0.00 in0.0 mm 0.00 in0.0 mm
08:44 AM 53.0°F11.7°C 47.7°F8.7°C 82% 1.5 mph N2.4 kmh N 4.0 mph6.4 kmh 30.12 in1020.0 mb 0.00 in0.0 mm 0.00 in0.0 mm 0.00 in0.0 mm
08:49 AM 53.1°F11.7°C 47.5°F8.6°C 81% 1.3 mph NNE2.1 kmh NNE 4.0 mph6.4 kmh 30.12 in1020.0 mb 0.00 in0.0 mm 0.00 in0.0 mm 0.00 in0.0 mm
08:54 AM 53.1°F11.7°C 47.5°F8.6°C 81% 1.8 mph NE2.9 kmh NE 4.0 mph6.4 kmh 30.12 in1020.0 mb 0.00 in0.0 mm 0.00 in0.0 mm 0.00 in0.0 mm
08:59 AM 53.3°F11.8°C 47.6°F8.7°C 81% 1.0 mph N1.6 kmh N 4.0 mph6.4 kmh 30.13 in1020.3 mb 0.00 in0.0 mm 0.00 in0.0 mm 0.00 in0.0 mm
09:04 AM 53.4°F11.9°C 47.4°F8.6°C 80% 1.0 mph N1.6 kmh N 4.0 mph6.4 kmh 30.13 in1020.3 mb 0.00 in0.0 mm 0.00 in0.0 mm 0.00 in0.0 mm
09:09 AM 53.4°F11.9°C 47.1°F8.4°C 79% 1.0 mph N1.6 kmh N 4.0 mph6.4 kmh 30.13 in1020.3 mb 0.00 in0.0 mm 0.00 in0.0 mm 0.00 in0.0 mm
09:14 AM 53.6°F12.0°C 47.6°F8.7°C 80% 1.1 mph NNE1.8 kmh NNE 2.0 mph3.2 kmh 30.13 in1020.3 mb 0.00 in0.0 mm 0.00 in0.0 mm 0.00 in0.0 mm
09:19 AM 53.6°F12.0°C 47.6°F8.7°C 80% 2.9 mph NE4.7 kmh NE 4.0 mph6.4 kmh 30.13 in1020.3 mb 0.00 in0.0 mm 0.00 in0.0 mm 0.00 in0.0 mm
09:24 AM 53.6°F12.0°C 47.3°F8.5°C 79% 1.2 mph NNE1.9 kmh NNE 4.0 mph6.4 kmh 30.13 in1020.3 mb 0.00 in0.0 mm 0.00 in0.0 mm 0.00 in0.0 mm
09:29 AM 53.6°F12.0°C 47.3°F8.5°C 79% 1.2 mph N1.9 kmh N 4.0 mph6.4 kmh 30.13 in1020.3 mb 0.00 in0.0 mm 0.00 in0.0 mm 0.00 in0.0 mm
09:34 AM 53.6°F12.0°C 47.6°F8.7°C 80% 2.1 mph NNW3.4 kmh NNW 4.0 mph6.4 kmh 30.14 in1020.7 mb 0.00 in0.0 mm 0.00 in0.0 mm 0.00 in0.0 mm
09:39 AM 53.4°F11.9°C 47.4°F8.6°C 80% 2.3 mph NE3.7 kmh NE 4.0 mph6.4 kmh 30.14 in1020.7 mb 0.00 in0.0 mm 0.00 in0.0 mm 0.00 in0.0 mm
09:44 AM 53.3°F11.8°C 47.3°F8.5°C 80% 1.6 mph NNE2.6 kmh NNE 4.0 mph6.4 kmh 30.14 in1020.7 mb 0.00 in0.0 mm 0.00 in0.0 mm 0.00 in0.0 mm
09:49 AM 53.1°F11.7°C 47.1°F8.4°C 80% 3.3 mph NNE5.3 kmh NNE 6.0 mph9.7 kmh 30.14 in1020.7 mb 0.00 in0.0 mm 0.00 in0.0 mm 0.00 in0.0 mm
09:54 AM 53.1°F11.7°C 47.1°F8.4°C 80% 2.8 mph NE4.5 kmh NE 6.0 mph9.7 kmh 30.14 in1020.7 mb 0.00 in0.0 mm 0.00 in0.0 mm 0.00 in0.0 mm
09:59 AM 53.0°F11.7°C 47.0°F8.3°C 80% 2.0 mph NNE3.2 kmh NNE 6.0 mph9.7 kmh 30.14 in1020.7 mb 0.00 in0.0 mm 0.00 in0.0 mm 0.00 in0.0 mm
10:04 AM 53.2°F11.8°C 47.2°F8.4°C 80% 2.8 mph NE4.5 kmh NE 6.0 mph9.7 kmh 30.14 in1020.7 mb 0.00 in0.0 mm 0.00 in0.0 mm 0.00 in0.0 mm
10:09 AM 53.6°F12.0°C 47.3°F8.5°C 79% 1.8 mph NE2.9 kmh NE 6.0 mph9.7 kmh 30.14 in1020.7 mb 0.00 in0.0 mm 0.00 in0.0 mm 0.00 in0.0 mm
10:14 AM 54.1°F12.3°C 47.8°F8.8°C 79% 2.9 mph N4.7 kmh N 6.0 mph9.7 kmh 30.14 in1020.7 mb 0.00 in0.0 mm 0.00 in0.0 mm 0.00 in0.0 mm
10:19 AM 54.5°F12.5°C 48.2°F9.0°C 79% 1.2 mph N1.9 kmh N 6.0 mph9.7 kmh 30.14 in1020.7 mb 0.00 in0.0 mm 0.00 in0.0 mm 0.00 in0.0 mm
10:24 AM 54.6°F12.6°C 48.3°F9.1°C 79% 2.1 mph N3.4 kmh N 6.0 mph9.7 kmh 30.14 in1020.7 mb 0.00 in0.0 mm 0.00 in0.0 mm 0.00 in0.0 mm
10:29 AM 54.7°F12.6°C 48.3°F9.1°C 79% 1.5 mph NNE2.4 kmh NNE 6.0 mph9.7 kmh 30.14 in1020.7 mb 0.00 in0.0 mm 0.00 in0.0 mm 0.00 in0.0 mm
10:34 AM 54.9°F12.7°C 48.5°F9.2°C 79% 2.0 mph NE3.2 kmh NE 5.0 mph8.0 kmh 30.15 in1021.0 mb 0.00 in0.0 mm 0.00 in0.0 mm 0.00 in0.0 mm
10:39 AM 55.0°F12.8°C 48.3°F9.1°C 78% 3.5 mph ENE5.6 kmh ENE 5.0 mph8.0 kmh 30.14 in1020.7 mb 0.00 in0.0 mm 0.00 in0.0 mm 0.00 in0.0 mm
10:44 AM 55.1°F12.8°C 48.4°F9.1°C 78% 2.0 mph ENE3.2 kmh ENE 6.0 mph9.7 kmh 30.14 in1020.7 mb 0.00 in0.0 mm 0.00 in0.0 mm 0.00 in0.0 mm
10:49 AM 55.7°F13.2°C 49.0°F9.4°C 78% 2.7 mph NNE4.3 kmh NNE 6.0 mph9.7 kmh 30.14 in1020.7 mb 0.00 in0.0 mm 0.00 in0.0 mm 0.00 in0.0 mm
10:54 AM 56.3°F13.5°C 49.3°F9.6°C 77% 3.3 mph NE5.3 kmh NE 6.0 mph9.7 kmh 30.14 in1020.7 mb 0.00 in0.0 mm 0.00 in0.0 mm 0.00 in0.0 mm
10:59 AM 56.5°F13.6°C 49.5°F9.7°C 77% 1.9 mph ENE3.1 kmh ENE 6.0 mph9.7 kmh 30.14 in1020.7 mb 0.00 in0.0 mm 0.00 in0.0 mm 0.00 in0.0 mm
11:04 AM 57.0°F13.9°C 49.9°F9.9°C 77% 1.6 mph N2.6 kmh N 6.0 mph9.7 kmh 30.14 in1020.7 mb 0.00 in0.0 mm 0.00 in0.0 mm 0.00 in0.0 mm
11:09 AM 57.3°F14.1°C 49.9°F9.9°C 76% 2.8 mph N4.5 kmh N 6.0 mph9.7 kmh 30.14 in1020.7 mb 0.00 in0.0 mm 0.00 in0.0 mm 0.00 in0.0 mm
11:14 AM 57.3°F14.1°C 49.5°F9.7°C 75% 5.5 mph NE8.9 kmh NE 7.0 mph11.3 kmh 30.14 in1020.7 mb 0.00 in0.0 mm 0.00 in0.0 mm 0.00 in0.0 mm
11:19 AM 57.7°F14.3°C 49.6°F9.8°C 74% 3.4 mph ENE5.5 kmh ENE 8.0 mph12.9 kmh 30.14 in1020.7 mb 0.00 in0.0 mm 0.00 in0.0 mm 0.00 in0.0 mm
11:24 AM 58.3°F14.6°C 50.2°F10.1°C 74% 3.2 mph NNE5.1 kmh NNE 8.0 mph12.9 kmh 30.14 in1020.7 mb 0.00 in0.0 mm 0.00 in0.0 mm 0.00 in0.0 mm
11:29 AM 58.8°F14.9°C 49.9°F9.9°C 72% 3.4 mph NE5.5 kmh NE 8.0 mph12.9 kmh 30.14 in1020.7 mb 0.00 in0.0 mm 0.00 in0.0 mm 0.00 in0.0 mm
11:34 AM 59.2°F15.1°C 49.9°F9.9°C 71% 3.3 mph NE5.3 kmh NE 7.0 mph11.3 kmh 30.14 in1020.7 mb 0.00 in0.0 mm 0.00 in0.0 mm 0.00 in0.0 mm
11:39 AM 59.3°F15.2°C 49.3°F9.6°C 69% 3.8 mph NE6.1 kmh NE 6.0 mph9.7 kmh 30.14 in1020.7 mb 0.00 in0.0 mm 0.00 in0.0 mm 0.00 in0.0 mm
11:44 AM 59.6°F15.3°C 49.6°F9.8°C 69% 3.7 mph NE6.0 kmh NE 7.0 mph11.3 kmh 30.14 in1020.7 mb 0.00 in0.0 mm 0.00 in0.0 mm 0.00 in0.0 mm
11:49 AM 59.6°F15.3°C 49.6°F9.8°C 69% 5.4 mph NE8.7 kmh NE 9.0 mph14.5 kmh 30.13 in1020.3 mb 0.00 in0.0 mm 0.00 in0.0 mm 0.00 in0.0 mm
11:54 AM 59.4°F15.2°C 48.6°F9.2°C 67% 4.1 mph ENE6.6 kmh ENE 9.0 mph14.5 kmh 30.13 in1020.3 mb 0.00 in0.0 mm 0.00 in0.0 mm 0.00 in0.0 mm
11:59 AM 59.5°F15.3°C 48.7°F9.3°C 67% 3.5 mph NE5.6 kmh NE 9.0 mph14.5 kmh 30.13 in1020.3 mb 0.00 in0.0 mm 0.00 in0.0 mm 0.00 in0.0 mm
12:04 PM 59.6°F15.3°C 48.8°F9.3°C 67% 4.5 mph NE7.2 kmh NE 9.0 mph14.5 kmh 30.13 in1020.3 mb 0.00 in0.0 mm 0.00 in0.0 mm 0.00 in0.0 mm
12:09 PM 59.8°F15.4°C 48.2°F9.0°C 65% 5.1 mph NE8.2 kmh NE 10.0 mph16.1 kmh 30.13 in1020.3 mb 0.00 in0.0 mm 0.00 in0.0 mm 0.00 in0.0 mm
12:14 PM 59.9°F15.5°C 48.3°F9.1°C 65% 4.1 mph NE6.6 kmh NE 10.0 mph16.1 kmh 30.13 in1020.3 mb 0.00 in0.0 mm 0.00 in0.0 mm 0.00 in0.0 mm
12:19 PM 60.0°F15.6°C 48.3°F9.1°C 65% 4.6 mph ENE7.4 kmh ENE 10.0 mph16.1 kmh 30.12 in1020.0 mb 0.00 in0.0 mm 0.00 in0.0 mm 0.00 in0.0 mm
12:24 PM 60.0°F15.6°C 48.3°F9.1°C 65% 5.8 mph ENE9.3 kmh ENE 10.0 mph16.1 kmh 30.12 in1020.0 mb 0.00 in0.0 mm 0.00 in0.0 mm 0.00 in0.0 mm
12:29 PM 60.1°F15.6°C 48.8°F9.3°C 66% 4.0 mph E6.4 kmh E 10.0 mph16.1 kmh 30.12 in1020.0 mb 0.00 in0.0 mm 0.00 in0.0 mm 0.00 in0.0 mm
12:34 PM 60.3°F15.7°C 49.0°F9.4°C 66% 2.9 mph E4.7 kmh E 10.0 mph16.1 kmh 30.12 in1020.0 mb 0.00 in0.0 mm 0.00 in0.0 mm 0.00 in0.0 mm
12:39 PM 60.5°F15.8°C 49.2°F9.6°C 66% 3.4 mph E5.5 kmh E 10.0 mph16.1 kmh 30.11 in1019.6 mb 0.00 in0.0 mm 0.00 in0.0 mm 0.00 in0.0 mm
12:44 PM 60.5°F15.8°C 49.2°F9.6°C 66% 4.0 mph NE6.4 kmh NE 6.0 mph9.7 kmh 30.11 in1019.6 mb 0.00 in0.0 mm 0.00 in0.0 mm 0.00 in0.0 mm
12:49 PM 60.6°F15.9°C 49.3°F9.6°C 66% 4.3 mph NE6.9 kmh NE 8.0 mph12.9 kmh 30.11 in1019.6 mb 0.00 in0.0 mm 0.00 in0.0 mm 0.00 in0.0 mm
12:54 PM 60.7°F15.9°C 49.4°F9.7°C 66% 4.0 mph NNE6.4 kmh NNE 10.0 mph16.1 kmh 30.11 in1019.6 mb 0.00 in0.0 mm 0.00 in0.0 mm 0.00 in0.0 mm
12:59 PM 61.0°F16.1°C 49.7°F9.8°C 66% 5.5 mph ENE8.9 kmh ENE 10.0 mph16.1 kmh 30.10 in1019.3 mb 0.00 in0.0 mm 0.00 in0.0 mm 0.00 in0.0 mm
01:04 PM 60.6°F15.9°C 49.3°F9.6°C 66% 3.6 mph NE5.8 kmh NE 10.0 mph16.1 kmh 30.10 in1019.3 mb 0.00 in0.0 mm 0.00 in0.0 mm 0.00 in0.0 mm
01:09 PM 61.2°F16.2°C 49.9°F9.9°C 66% 2.2 mph NNE3.5 kmh NNE 10.0 mph16.1 kmh 30.10 in1019.3 mb 0.00 in0.0 mm 0.00 in0.0 mm 0.00 in0.0 mm
01:14 PM 61.5°F16.4°C 49.8°F9.9°C 65% 2.1 mph NE3.4 kmh NE 10.0 mph16.1 kmh 30.10 in1019.3 mb 0.00 in0.0 mm 0.00 in0.0 mm 0.00 in0.0 mm
01:19 PM 61.8°F16.6°C 49.6°F9.8°C 64% 6.4 mph NE10.3 kmh NE 10.0 mph16.1 kmh 30.09 in1019.0 mb 0.00 in0.0 mm 0.00 in0.0 mm 0.00 in0.0 mm
01:24 PM 61.7°F16.5°C 48.7°F9.3°C 62% 2.2 mph N3.5 kmh N 12.0 mph19.3 kmh 30.09 in1019.0 mb 0.00 in0.0 mm 0.00 in0.0 mm 0.00 in0.0 mm
01:29 PM 61.8°F16.6°C 48.6°F9.2°C 62% 4.6 mph ENE7.4 kmh ENE 12.0 mph19.3 kmh 30.09 in1019.0 mb 0.00 in0.0 mm 0.00 in0.0 mm 0.00 in0.0 mm
01:34 PM 61.6°F16.4°C 48.9°F9.4°C 63% 3.1 mph E5.0 kmh E 12.0 mph19.3 kmh 30.09 in1019.0 mb 0.00 in0.0 mm 0.00 in0.0 mm 0.00 in0.0 mm
01:39 PM 61.8°F16.6°C 49.1°F9.5°C 63% 2.7 mph E4.3 kmh E 9.0 mph14.5 kmh 30.09 in1019.0 mb 0.00 in0.0 mm 0.00 in0.0 mm 0.00 in0.0 mm
01:44 PM 61.6°F16.4°C 48.9°F9.4°C 63% 5.0 mph ENE8.0 kmh ENE 9.0 mph14.5 kmh 30.08 in1018.6 mb 0.00 in0.0 mm 0.00 in0.0 mm 0.00 in0.0 mm
01:49 PM 61.8°F16.6°C 49.2°F9.6°C 63% 3.5 mph NE5.6 kmh NE 10.0 mph16.1 kmh 30.08 in1018.6 mb 0.00 in0.0 mm 0.00 in0.0 mm 0.00 in0.0 mm
01:54 PM 62.1°F16.7°C 49.4°F9.7°C 63% 2.8 mph NE4.5 kmh NE 10.0 mph16.1 kmh 30.08 in1018.6 mb 0.00 in0.0 mm 0.00 in0.0 mm 0.00 in0.0 mm
01:59 PM 62.3°F16.8°C 48.7°F9.3°C 61% 6.9 mph E11.1 kmh E 10.0 mph16.1 kmh 30.08 in1018.6 mb 0.00 in0.0 mm 0.00 in0.0 mm 0.00 in0.0 mm
02:04 PM 62.1°F16.7°C 49.5°F9.7°C 63% 2.6 mph ENE4.2 kmh ENE 10.0 mph16.1 kmh 30.08 in1018.6 mb 0.00 in0.0 mm 0.00 in0.0 mm 0.00 in0.0 mm
02:09 PM 62.2°F16.8°C 49.2°F9.6°C 62% 4.6 mph E7.4 kmh E 10.0 mph16.1 kmh 30.08 in1018.6 mb 0.00 in0.0 mm 0.00 in0.0 mm 0.00 in0.0 mm
02:14 PM 62.1°F16.7°C 49.4°F9.7°C 63% 2.2 mph E3.5 kmh E 10.0 mph16.1 kmh 30.08 in1018.6 mb 0.00 in0.0 mm 0.00 in0.0 mm 0.00 in0.0 mm
02:19 PM 62.2°F16.8°C 49.2°F9.6°C 62% 5.7 mph E9.2 kmh E 10.0 mph16.1 kmh 30.08 in1018.6 mb 0.00 in0.0 mm 0.00 in0.0 mm 0.00 in0.0 mm
02:24 PM 62.1°F16.7°C 49.1°F9.5°C 62% 3.2 mph NE5.1 kmh NE 11.0 mph17.7 kmh 30.08 in1018.6 mb 0.00 in0.0 mm 0.00 in0.0 mm 0.00 in0.0 mm
02:29 PM 62.2°F16.8°C 49.2°F9.6°C 62% 2.7 mph NE4.3 kmh NE 11.0 mph17.7 kmh 30.08 in1018.6 mb 0.00 in0.0 mm 0.00 in0.0 mm 0.00 in0.0 mm
02:34 PM 62.2°F16.8°C 49.2°F9.6°C 62% 1.7 mph NE2.7 kmh NE 11.0 mph17.7 kmh 30.07 in1018.3 mb 0.00 in0.0 mm 0.00 in0.0 mm 0.00 in0.0 mm
02:39 PM 62.9°F17.2°C 49.4°F9.7°C 61% 2.8 mph NE4.5 kmh NE 9.0 mph14.5 kmh 30.07 in1018.3 mb 0.00 in0.0 mm 0.00 in0.0 mm 0.00 in0.0 mm
02:44 PM 63.2°F17.3°C 48.8°F9.3°C 59% 3.4 mph E5.5 kmh E 6.0 mph9.7 kmh 30.07 in1018.3 mb 0.00 in0.0 mm 0.00 in0.0 mm 0.00 in0.0 mm
02:49 PM 63.1°F17.3°C 49.1°F9.5°C 60% 4.1 mph ESE6.6 kmh ESE 8.0 mph12.9 kmh 30.06 in1017.9 mb 0.00 in0.0 mm 0.00 in0.0 mm 0.00 in0.0 mm
02:54 PM 63.3°F17.4°C 48.9°F9.4°C 59% 3.1 mph E5.0 kmh E 8.0 mph12.9 kmh 30.06 in1017.9 mb 0.00 in0.0 mm 0.00 in0.0 mm 0.00 in0.0 mm
02:59 PM 63.6°F17.6°C 49.1°F9.5°C 59% 4.7 mph NE7.6 kmh NE 8.0 mph12.9 kmh 30.06 in1017.9 mb 0.00 in0.0 mm 0.00 in0.0 mm 0.00 in0.0 mm
03:04 PM 63.1°F17.3°C 48.7°F9.3°C 59% 7.3 mph ENE11.7 kmh ENE 13.0 mph20.9 kmh 30.06 in1017.9 mb 0.00 in0.0 mm 0.00 in0.0 mm 0.00 in0.0 mm
03:09 PM 62.9°F17.2°C 48.5°F9.2°C 59% 2.8 mph NE4.5 kmh NE 13.0 mph20.9 kmh 30.06 in1017.9 mb 0.00 in0.0 mm 0.00 in0.0 mm 0.00 in0.0 mm
03:14 PM 63.2°F17.3°C 48.3°F9.1°C 58% 4.9 mph NE7.9 kmh NE 13.0 mph20.9 kmh 30.05 in1017.6 mb 0.00 in0.0 mm 0.00 in0.0 mm 0.00 in0.0 mm
03:19 PM 63.6°F17.6°C 48.7°F9.3°C 58% 3.9 mph ENE6.3 kmh ENE 13.0 mph20.9 kmh 30.05 in1017.6 mb 0.00 in0.0 mm 0.00 in0.0 mm 0.00 in0.0 mm
03:24 PM 63.6°F17.6°C 48.2°F9.0°C 57% 5.3 mph ENE8.5 kmh ENE 9.0 mph14.5 kmh 30.05 in1017.6 mb 0.00 in0.0 mm 0.00 in0.0 mm 0.00 in0.0 mm
03:29 PM 63.8°F17.7°C 47.9°F8.8°C 56% 3.2 mph NE5.1 kmh NE 9.0 mph14.5 kmh 30.05 in1017.6 mb 0.00 in0.0 mm 0.00 in0.0 mm 0.00 in0.0 mm
03:34 PM 63.5°F17.5°C 47.0°F8.3°C 55% 4.3 mph ESE6.9 kmh ESE 9.0 mph14.5 kmh 30.05 in1017.6 mb 0.00 in0.0 mm 0.00 in0.0 mm 0.00 in0.0 mm
03:39 PM 63.5°F17.5°C 46.1°F7.8°C 53% 5.3 mph E8.5 kmh E 10.0 mph16.1 kmh 30.05 in1017.6 mb 0.00 in0.0 mm 0.00 in0.0 mm 0.00 in0.0 mm
03:44 PM 63.6°F17.6°C 46.2°F7.9°C 53% 2.7 mph ENE4.3 kmh ENE 10.0 mph16.1 kmh 30.05 in1017.6 mb 0.00 in0.0 mm 0.00 in0.0 mm 0.00 in0.0 mm
03:49 PM 63.8°F17.7°C 45.9°F7.7°C 52% 3.4 mph E5.5 kmh E 10.0 mph16.1 kmh 30.05 in1017.6 mb 0.00 in0.0 mm 0.00 in0.0 mm 0.00 in0.0 mm
03:54 PM 64.2°F17.9°C 46.8°F8.2°C 53% 3.1 mph E5.0 kmh E 10.0 mph16.1 kmh 30.05 in1017.6 mb 0.00 in0.0 mm 0.00 in0.0 mm 0.00 in0.0 mm
03:59 PM 64.0°F17.8°C 47.1°F8.4°C 54% 2.8 mph ENE4.5 kmh ENE 8.0 mph12.9 kmh 30.05 in1017.6 mb 0.00 in0.0 mm 0.00 in0.0 mm 0.00 in0.0 mm
04:04 PM 64.0°F17.8°C 46.5°F8.1°C 53% 4.4 mph NE7.1 kmh NE 8.0 mph12.9 kmh 30.05 in1017.6 mb 0.00 in0.0 mm 0.00 in0.0 mm 0.00 in0.0 mm
04:09 PM 64.4°F18.0°C 47.0°F8.3°C 53% 2.5 mph ENE4.0 kmh ENE 8.0 mph12.9 kmh 30.05 in1017.6 mb 0.00 in0.0 mm 0.00 in0.0 mm 0.00 in0.0 mm
04:14 PM 64.7°F18.2°C 47.2°F8.4°C 53% 5.8 mph ENE9.3 kmh ENE 10.0 mph16.1 kmh 30.05 in1017.6 mb 0.00 in0.0 mm 0.00 in0.0 mm 0.00 in0.0 mm
04:19 PM 64.2°F17.9°C 46.8°F8.2°C 53% 5.9 mph E9.5 kmh E 10.0 mph16.1 kmh 30.05 in1017.6 mb 0.00 in0.0 mm 0.00 in0.0 mm 0.00 in0.0 mm
04:24 PM 64.0°F17.8°C 47.5°F8.6°C 55% 1.8 mph NE2.9 kmh NE 10.0 mph16.1 kmh 30.05 in1017.6 mb 0.00 in0.0 mm 0.00 in0.0 mm 0.00 in0.0 mm
04:29 PM 64.1°F17.8°C 47.7°F8.7°C 55% 1.0 mph NE1.6 kmh NE 10.0 mph16.1 kmh 30.05 in1017.6 mb 0.00 in0.0 mm 0.00 in0.0 mm 0.00 in0.0 mm
04:34 PM 64.1°F17.8°C 47.6°F8.7°C 55% 1.7 mph E2.7 kmh E 8.0 mph12.9 kmh 30.05 in1017.6 mb 0.00 in0.0 mm 0.00 in0.0 mm 0.00 in0.0 mm
04:39 PM 64.1°F17.8°C 47.7°F8.7°C 55% 2.0 mph NE3.2 kmh NE 5.0 mph8.0 kmh 30.05 in1017.6 mb 0.00 in0.0 mm 0.00 in0.0 mm 0.00 in0.0 mm
04:44 PM 64.1°F17.8°C 47.6°F8.7°C 55% 1.0 mph NNE1.6 kmh NNE 4.0 mph6.4 kmh 30.05 in1017.6 mb 0.00 in0.0 mm 0.00 in0.0 mm 0.00 in0.0 mm
04:49 PM 64.0°F17.8°C 47.5°F8.6°C 55% 1.1 mph WNW1.8 kmh WNW 4.0 mph6.4 kmh 30.05 in1017.6 mb 0.00 in0.0 mm 0.00 in0.0 mm 0.00 in0.0 mm
04:54 PM 63.8°F17.7°C 47.4°F8.6°C 55% 1.0 mph NW1.6 kmh NW 4.0 mph6.4 kmh 30.05 in1017.6 mb 0.00 in0.0 mm 0.00 in0.0 mm 0.00 in0.0 mm
04:59 PM 63.8°F17.7°C 47.8°F8.8°C 56% 1.0 mph NW1.6 kmh NW 2.0 mph3.2 kmh 30.05 in1017.6 mb 0.00 in0.0 mm 0.00 in0.0 mm 0.00 in0.0 mm
05:04 PM 63.8°F17.7°C 47.8°F8.8°C 56% 1.4 mph ENE2.3 kmh ENE 2.0 mph3.2 kmh 30.05 in1017.6 mb 0.00 in0.0 mm 0.00 in0.0 mm 0.00 in0.0 mm
05:09 PM 63.9°F17.7°C 47.9°F8.8°C 56% 1.0 mph ENE1.6 kmh ENE 2.0 mph3.2 kmh 30.05 in1017.6 mb 0.00 in0.0 mm 0.00 in0.0 mm 0.00 in0.0 mm
05:14 PM 64.1°F17.8°C 48.2°F9.0°C 56% 1.0 mph ENE1.6 kmh ENE 2.0 mph3.2 kmh 30.05 in1017.6 mb 0.00 in0.0 mm 0.00 in0.0 mm 0.00 in0.0 mm
05:19 PM 64.2°F17.9°C 47.8°F8.8°C 55% 1.7 mph ENE2.7 kmh ENE 3.0 mph4.8 kmh 30.05 in1017.6 mb 0.00 in0.0 mm 0.00 in0.0 mm 0.00 in0.0 mm
05:24 PM 64.0°F17.8°C 47.6°F8.7°C 55% 2.2 mph ENE3.5 kmh ENE 3.0 mph4.8 kmh 30.05 in1017.6 mb 0.00 in0.0 mm 0.00 in0.0 mm 0.00 in0.0 mm
05:29 PM 63.9°F17.7°C 48.0°F8.9°C 56% 1.0 mph ENE1.6 kmh ENE 3.0 mph4.8 kmh 30.05 in1017.6 mb 0.00 in0.0 mm 0.00 in0.0 mm 0.00 in0.0 mm
05:34 PM 63.9°F17.7°C 48.0°F8.9°C 56% Calm Calm 3.0 mph4.8 kmh 30.05 in1017.6 mb 0.00 in0.0 mm 0.00 in0.0 mm 0.00 in0.0 mm
05:39 PM 63.9°F17.7°C 48.0°F8.9°C 56% Calm Calm 3.0 mph4.8 kmh 30.05 in1017.6 mb 0.00 in0.0 mm 0.00 in0.0 mm 0.00 in0.0 mm
05:44 PM 63.7°F17.6°C 47.8°F8.8°C 56% Calm Calm 1.0 mph1.6 kmh 30.05 in1017.6 mb 0.00 in0.0 mm 0.00 in0.0 mm 0.00 in0.0 mm
05:49 PM 63.6°F17.6°C 47.7°F8.7°C 56% Calm Calm 1.0 mph1.6 kmh 30.05 in1017.6 mb 0.00 in0.0 mm 0.00 in0.0 mm 0.00 in0.0 mm
05:54 PM 63.4°F17.4°C 48.0°F8.9°C 57% Calm Calm 1.0 mph1.6 kmh 30.05 in1017.6 mb 0.00 in0.0 mm 0.00 in0.0 mm 0.00 in0.0 mm
05:59 PM 63.1°F17.3°C 47.7°F8.7°C 57% Calm Calm 1.0 mph1.6 kmh 30.05 in1017.6 mb 0.00 in0.0 mm 0.00 in0.0 mm 0.00 in0.0 mm
06:04 PM 62.9°F17.2°C 47.5°F8.6°C 57% Calm Calm 1.0 mph1.6 kmh 30.05 in1017.6 mb 0.00 in0.0 mm 0.00 in0.0 mm 0.00 in0.0 mm
06:09 PM 62.6°F17.0°C 47.7°F8.7°C 58% Calm Calm -- 30.05 in1017.6 mb 0.00 in0.0 mm 0.00 in0.0 mm 0.00 in0.0 mm
06:14 PM 62.4°F16.9°C 47.6°F8.7°C 58% Calm Calm -- 30.05 in1017.6 mb 0.00 in0.0 mm 0.00 in0.0 mm 0.00 in0.0 mm
06:19 PM 62.0°F16.7°C 47.6°F8.7°C 59% Calm Calm -- 30.05 in1017.6 mb 0.00 in0.0 mm 0.00 in0.0 mm 0.00 in0.0 mm
06:24 PM 61.6°F16.4°C 47.7°F8.7°C 60% Calm Calm -- 30.05 in1017.6 mb 0.00 in0.0 mm 0.00 in0.0 mm 0.00 in0.0 mm
06:29 PM 61.3°F16.3°C 47.4°F8.6°C 60% Calm Calm -- 30.06 in1017.9 mb 0.00 in0.0 mm 0.00 in0.0 mm 0.00 in0.0 mm
06:34 PM 61.0°F16.1°C 47.6°F8.7°C 61% Calm Calm -- 30.05 in1017.6 mb 0.00 in0.0 mm 0.00 in0.0 mm 0.00 in0.0 mm
06:39 PM 60.7°F15.9°C 47.3°F8.5°C 61% Calm Calm -- 30.05 in1017.6 mb 0.00 in0.0 mm 0.00 in0.0 mm 0.00 in0.0 mm
06:44 PM 60.4°F15.8°C 47.5°F8.6°C 62% Calm Calm -- 30.05 in1017.6 mb 0.00 in0.0 mm 0.00 in0.0 mm 0.00 in0.0 mm
06:49 PM 60.4°F15.8°C 47.5°F8.6°C 62% Calm Calm -- 30.05 in1017.6 mb 0.00 in0.0 mm 0.00 in0.0 mm 0.00 in0.0 mm
06:54 PM 60.4°F15.8°C 47.5°F8.6°C 62% Calm Calm -- 30.05 in1017.6 mb 0.00 in0.0 mm 0.00 in0.0 mm 0.00 in0.0 mm
06:59 PM 60.5°F15.8°C 48.0°F8.9°C 63% Calm Calm -- 30.05 in1017.6 mb 0.00 in0.0 mm 0.00 in0.0 mm 0.00 in0.0 mm
07:04 PM 60.7°F15.9°C 47.7°F8.7°C 62% Calm Calm -- 30.06 in1017.9 mb 0.00 in0.0 mm 0.00 in0.0 mm 0.00 in0.0 mm
07:09 PM 60.7°F15.9°C 47.7°F8.7°C 62% Calm Calm -- 30.06 in1017.9 mb 0.00 in0.0 mm 0.00 in0.0 mm 0.00 in0.0 mm
07:14 PM 60.6°F15.9°C 47.5°F8.6°C 62% Calm Calm -- 30.06 in1017.9 mb 0.00 in0.0 mm 0.00 in0.0 mm 0.00 in0.0 mm
07:19 PM 60.3°F15.7°C 47.8°F8.8°C 63% Calm Calm -- 30.06 in1017.9 mb 0.00 in0.0 mm 0.00 in0.0 mm 0.00 in0.0 mm
07:24 PM 60.1°F15.6°C 47.2°F8.4°C 62% Calm Calm -- 30.06 in1017.9 mb 0.00 in0.0 mm 0.00 in0.0 mm 0.00 in0.0 mm
07:29 PM 60.2°F15.7°C 47.3°F8.5°C 62% Calm Calm -- 30.06 in1017.9 mb 0.00 in0.0 mm 0.00 in0.0 mm 0.00 in0.0 mm
07:34 PM 60.1°F15.6°C 47.6°F8.7°C 63% Calm Calm -- 30.06 in1017.9 mb 0.00 in0.0 mm 0.00 in0.0 mm 0.00 in0.0 mm
07:39 PM 59.9°F15.5°C 47.4°F8.6°C 63% Calm Calm -- 30.07 in1018.3 mb 0.00 in0.0 mm 0.00 in0.0 mm 0.00 in0.0 mm
07:44 PM 59.8°F15.4°C 47.3°F8.5°C 63% Calm Calm -- 30.07 in1018.3 mb 0.00 in0.0 mm 0.00 in0.0 mm 0.00 in0.0 mm
07:49 PM 59.9°F15.5°C 47.8°F8.8°C 64% Calm Calm -- 30.07 in1018.3 mb 0.00 in0.0 mm 0.00 in0.0 mm 0.00 in0.0 mm
07:54 PM 59.9°F15.5°C 48.7°F9.3°C 66% Calm Calm -- 30.07 in1018.3 mb 0.00 in0.0 mm 0.00 in0.0 mm 0.00 in0.0 mm
07:59 PM 60.0°F15.6°C 49.2°F9.6°C 67% 1.0 mph ESE1.6 kmh ESE 1.0 mph1.6 kmh 30.07 in1018.3 mb 0.00 in0.0 mm 0.00 in0.0 mm 0.00 in0.0 mm
08:04 PM 60.2°F15.7°C 49.2°F9.6°C 67% 1.0 mph ESE1.6 kmh ESE 2.0 mph3.2 kmh 30.07 in1018.3 mb 0.00 in0.0 mm 0.00 in0.0 mm 0.00 in0.0 mm
08:09 PM 60.0°F15.6°C 49.6°F9.8°C 68% Calm Calm 2.0 mph3.2 kmh 30.07 in1018.3 mb 0.00 in0.0 mm 0.00 in0.0 mm 0.00 in0.0 mm
08:14 PM 59.6°F15.3°C 49.2°F9.6°C 68% Calm Calm 2.0 mph3.2 kmh 30.07 in1018.3 mb 0.00 in0.0 mm 0.00 in0.0 mm 0.00 in0.0 mm
08:19 PM 59.2°F15.1°C 49.6°F9.8°C 70% Calm Calm 1.0 mph1.6 kmh 30.07 in1018.3 mb 0.00 in0.0 mm 0.00 in0.0 mm 0.00 in0.0 mm
08:25 PM 59.0°F15.0°C 49.0°F9.4°C 69% Calm Calm -- 30.07 in1018.3 mb 0.00 in0.0 mm 0.00 in0.0 mm 0.00 in0.0 mm
08:29 PM 59.1°F15.1°C 49.5°F9.7°C 70% Calm Calm -- 30.07 in1018.3 mb 0.00 in0.0 mm 0.00 in0.0 mm 0.00 in0.0 mm
08:34 PM 59.2°F15.1°C 49.9°F9.9°C 71% Calm Calm -- 30.07 in1018.3 mb 0.00 in0.0 mm 0.00 in0.0 mm 0.00 in0.0 mm
08:40 PM 59.2°F15.1°C 49.6°F9.8°C 70% Calm Calm -- 30.07 in1018.3 mb 0.00 in0.0 mm 0.00 in0.0 mm 0.00 in0.0 mm
08:44 PM 59.0°F15.0°C 50.1°F10.1°C 72% Calm Calm -- 30.07 in1018.3 mb 0.00 in0.0 mm 0.00 in0.0 mm 0.00 in0.0 mm
08:49 PM 58.7°F14.8°C 49.1°F9.5°C 70% Calm Calm -- 30.07 in1018.3 mb 0.00 in0.0 mm 0.00 in0.0 mm 0.00 in0.0 mm
08:54 PM 58.3°F14.6°C 48.7°F9.3°C 70% Calm Calm -- 30.07 in1018.3 mb 0.00 in0.0 mm 0.00 in0.0 mm 0.00 in0.0 mm
09:00 PM 58.1°F14.5°C 48.9°F9.4°C 71% Calm Calm 1.0 mph1.6 kmh 30.07 in1018.3 mb 0.00 in0.0 mm 0.00 in0.0 mm 0.00 in0.0 mm
09:05 PM 57.9°F14.4°C 49.0°F9.4°C 72% Calm Calm 1.0 mph1.6 kmh 30.07 in1018.3 mb 0.00 in0.0 mm 0.00 in0.0 mm 0.00 in0.0 mm
09:09 PM 57.9°F14.4°C 49.0°F9.4°C 72% 1.0 mph NNE1.6 kmh NNE 1.0 mph1.6 kmh 30.07 in1018.3 mb 0.00 in0.0 mm 0.00 in0.0 mm 0.00 in0.0 mm
09:15 PM 58.0°F14.4°C 48.8°F9.3°C 71% Calm Calm 1.0 mph1.6 kmh 30.07 in1018.3 mb 0.00 in0.0 mm 0.00 in0.0 mm 0.00 in0.0 mm
09:20 PM 57.8°F14.3°C 48.6°F9.2°C 71% Calm Calm 1.0 mph1.6 kmh 30.07 in1018.3 mb 0.00 in0.0 mm 0.00 in0.0 mm 0.00 in0.0 mm
09:25 PM 57.6°F14.2°C 48.8°F9.3°C 72% Calm Calm 1.0 mph1.6 kmh 30.07 in1018.3 mb 0.00 in0.0 mm 0.00 in0.0 mm 0.00 in0.0 mm
09:30 PM 57.5°F14.2°C 49.0°F9.4°C 73% Calm Calm -- 30.08 in1018.6 mb 0.00 in0.0 mm 0.00 in0.0 mm 0.00 in0.0 mm
09:35 PM 57.5°F14.2°C 49.0°F9.4°C 73% Calm Calm -- 30.07 in1018.3 mb 0.00 in0.0 mm 0.00 in0.0 mm 0.00 in0.0 mm
09:40 PM 57.5°F14.2°C 49.4°F9.7°C 74% Calm Calm -- 30.07 in1018.3 mb 0.00 in0.0 mm 0.00 in0.0 mm 0.00 in0.0 mm
09:45 PM 57.5°F14.2°C 49.4°F9.7°C 74% Calm Calm 1.0 mph1.6 kmh 30.08 in1018.6 mb 0.00 in0.0 mm 0.00 in0.0 mm 0.00 in0.0 mm
09:50 PM 57.4°F14.1°C 49.3°F9.6°C 74% 1.0 mph NNE1.6 kmh NNE 1.0 mph1.6 kmh 30.07 in1018.3 mb 0.00 in0.0 mm 0.00 in0.0 mm 0.00 in0.0 mm
09:55 PM 57.4°F14.1°C 49.3°F9.6°C 74% Calm Calm 1.0 mph1.6 kmh 30.07 in1018.3 mb 0.00 in0.0 mm 0.00 in0.0 mm 0.00 in0.0 mm
10:00 PM 57.2°F14.0°C 49.1°F9.5°C 74% 1.0 mph NNE1.6 kmh NNE 1.0 mph1.6 kmh 30.08 in1018.6 mb 0.00 in0.0 mm 0.00 in0.0 mm 0.00 in0.0 mm
10:05 PM 57.1°F13.9°C 49.3°F9.6°C 75% Calm Calm 1.0 mph1.6 kmh 30.08 in1018.6 mb 0.00 in0.0 mm 0.00 in0.0 mm 0.00 in0.0 mm
10:10 PM 57.1°F13.9°C 49.0°F9.4°C 74% Calm Calm 1.0 mph1.6 kmh 30.08 in1018.6 mb 0.00 in0.0 mm 0.00 in0.0 mm 0.00 in0.0 mm
10:15 PM 57.0°F13.9°C 48.9°F9.4°C 74% 1.5 mph NE2.4 kmh NE 2.0 mph3.2 kmh 30.08 in1018.6 mb 0.00 in0.0 mm 0.00 in0.0 mm 0.00 in0.0 mm
10:20 PM 56.7°F13.7°C 48.6°F9.2°C 74% 1.1 mph NE1.8 kmh NE 2.0 mph3.2 kmh 30.08 in1018.6 mb 0.00 in0.0 mm 0.00 in0.0 mm 0.00 in0.0 mm
10:25 PM 56.5°F13.6°C 48.8°F9.3°C 75% 1.0 mph NE1.6 kmh NE 2.0 mph3.2 kmh 30.08 in1018.6 mb 0.00 in0.0 mm 0.00 in0.0 mm 0.00 in0.0 mm
10:30 PM 56.1°F13.4°C 48.7°F9.3°C 76% 1.0 mph NE1.6 kmh NE 2.0 mph3.2 kmh 30.08 in1018.6 mb 0.00 in0.0 mm 0.00 in0.0 mm 0.00 in0.0 mm
10:35 PM 56.0°F13.3°C 48.6°F9.2°C 76% 1.1 mph NE1.8 kmh NE 2.0 mph3.2 kmh 30.08 in1018.6 mb 0.00 in0.0 mm 0.00 in0.0 mm 0.00 in0.0 mm
10:40 PM 56.0°F13.3°C 49.0°F9.4°C 77% 1.6 mph NE2.6 kmh NE 3.0 mph4.8 kmh 30.08 in1018.6 mb 0.00 in0.0 mm 0.00 in0.0 mm 0.00 in0.0 mm
10:45 PM 55.8°F13.2°C 48.7°F9.3°C 77% 1.9 mph NE3.1 kmh NE 3.0 mph4.8 kmh 30.08 in1018.6 mb 0.00 in0.0 mm 0.00 in0.0 mm 0.00 in0.0 mm
10:50 PM 55.5°F13.1°C 48.8°F9.3°C 78% 1.8 mph ENE2.9 kmh ENE 3.0 mph4.8 kmh 30.08 in1018.6 mb 0.00 in0.0 mm 0.00 in0.0 mm 0.00 in0.0 mm
10:55 PM 55.2°F12.9°C 48.9°F9.4°C 79% 1.0 mph NE1.6 kmh NE 3.0 mph4.8 kmh 30.08 in1018.6 mb 0.00 in0.0 mm 0.00 in0.0 mm 0.00 in0.0 mm
11:00 PM 55.0°F12.8°C 49.0°F9.4°C 80% 1.8 mph ENE2.9 kmh ENE 3.0 mph4.8 kmh 30.08 in1018.6 mb 0.00 in0.0 mm 0.00 in0.0 mm 0.00 in0.0 mm
11:05 PM 54.8°F12.7°C 48.7°F9.3°C 80% 1.3 mph ENE2.1 kmh ENE 4.0 mph6.4 kmh 30.08 in1018.6 mb 0.00 in0.0 mm 0.00 in0.0 mm 0.00 in0.0 mm
11:10 PM 54.7°F12.6°C 49.0°F9.4°C 81% 1.8 mph ENE2.9 kmh ENE 4.0 mph6.4 kmh 30.08 in1018.6 mb 0.00 in0.0 mm 0.00 in0.0 mm 0.00 in0.0 mm
11:15 PM 54.4°F12.4°C 48.7°F9.3°C 81% 1.7 mph NE2.7 kmh NE 4.0 mph6.4 kmh 30.08 in1018.6 mb 0.00 in0.0 mm 0.00 in0.0 mm 0.00 in0.0 mm
11:20 PM 54.1°F12.3°C 48.8°F9.3°C 82% 1.1 mph NE1.8 kmh NE 3.0 mph4.8 kmh 30.08 in1018.6 mb 0.00 in0.0 mm 0.00 in0.0 mm 0.00 in0.0 mm
11:25 PM 54.0°F12.2°C 49.0°F9.4°C 83% 1.4 mph ENE2.3 kmh ENE 3.0 mph4.8 kmh 30.08 in1018.6 mb 0.00 in0.0 mm 0.00 in0.0 mm 0.00 in0.0 mm
11:30 PM 53.8°F12.1°C 49.1°F9.5°C 84% 1.5 mph ENE2.4 kmh ENE 3.0 mph4.8 kmh 30.08 in1018.6 mb 0.00 in0.0 mm 0.00 in0.0 mm 0.00 in0.0 mm
11:35 PM 53.6°F12.0°C 49.2°F9.6°C 85% 1.3 mph ENE2.1 kmh ENE 3.0 mph4.8 kmh 30.09 in1019.0 mb 0.00 in0.0 mm 0.00 in0.0 mm 0.00 in0.0 mm
11:40 PM 53.5°F11.9°C 49.1°F9.5°C 85% 1.6 mph ENE2.6 kmh ENE 3.0 mph4.8 kmh 30.08 in1018.6 mb 0.00 in0.0 mm 0.00 in0.0 mm 0.00 in0.0 mm
11:45 PM 53.3°F11.8°C 49.2°F9.6°C 86% 1.3 mph ENE2.1 kmh ENE 3.0 mph4.8 kmh 30.08 in1018.6 mb 0.00 in0.0 mm 0.00 in0.0 mm 0.00 in0.0 mm
11:50 PM 53.2°F11.8°C 49.1°F9.5°C 86% 1.0 mph ENE1.6 kmh ENE 3.0 mph4.8 kmh 30.08 in1018.6 mb 0.00 in0.0 mm 0.00 in0.0 mm 0.00 in0.0 mm
11:55 PM 53.1°F11.7°C 49.3°F9.6°C 87% 1.0 mph E1.6 kmh E 3.0 mph4.8 kmh 30.08 in1018.6 mb 0.00 in0.0 mm 0.00 in0.0 mm 0.00 in0.0 mm